sensor_id;sensor_type;location;lat;lon;timestamp;pressure;altitude;pressure_sealevel;temperature;humidity
37856;BME280;23694;43.274;26.924;2023-02-21T00:01:54;98840.56;;;6.97;59.78
37856;BME280;23694;43.274;26.924;2023-02-21T00:04:39;98837.53;;;7.05;59.41
37856;BME280;23694;43.274;26.924;2023-02-21T00:07:24;98842.75;;;7.05;59.22
37856;BME280;23694;43.274;26.924;2023-02-21T00:10:11;98842.66;;;7.07;59.21
37856;BME280;23694;43.274;26.924;2023-02-21T00:12:56;98830.59;;;6.90;59.65
37856;BME280;23694;43.274;26.924;2023-02-21T00:15:41;98825.28;;;6.91;59.41
37856;BME280;23694;43.274;26.924;2023-02-21T00:18:25;98811.59;;;6.88;59.66
37856;BME280;23694;43.274;26.924;2023-02-21T00:21:10;98800.78;;;6.80;59.54
37856;BME280;23694;43.274;26.924;2023-02-21T00:23:54;98804.47;;;6.91;59.45
37856;BME280;23694;43.274;26.924;2023-02-21T00:26:39;98790.19;;;6.98;58.87
37856;BME280;23694;43.274;26.924;2023-02-21T00:29:24;98796.22;;;6.99;59.01
37856;BME280;23694;43.274;26.924;2023-02-21T00:32:08;98792.59;;;7.02;58.91
37856;BME280;23694;43.274;26.924;2023-02-21T00:34:52;98770.63;;;6.91;58.94
37856;BME280;23694;43.274;26.924;2023-02-21T00:37:37;98783.03;;;7.02;58.73
37856;BME280;23694;43.274;26.924;2023-02-21T00:40:21;98780.44;;;7.02;58.26
37856;BME280;23694;43.274;26.924;2023-02-21T00:43:06;98772.19;;;7.10;58.20
37856;BME280;23694;43.274;26.924;2023-02-21T00:45:50;98773.84;;;7.11;58.24
37856;BME280;23694;43.274;26.924;2023-02-21T00:48:35;98771.03;;;7.15;58.02
37856;BME280;23694;43.274;26.924;2023-02-21T00:51:19;98778.75;;;7.17;57.57
37856;BME280;23694;43.274;26.924;2023-02-21T00:54:03;98760.84;;;7.11;57.52
37856;BME280;23694;43.274;26.924;2023-02-21T00:56:48;98770.41;;;7.10;57.70
37856;BME280;23694;43.274;26.924;2023-02-21T00:59:32;98762.19;;;7.18;57.40
37856;BME280;23694;43.274;26.924;2023-02-21T01:02:17;98751.41;;;7.24;57.23
37856;BME280;23694;43.274;26.924;2023-02-21T01:05:01;98745.81;;;7.16;57.66
37856;BME280;23694;43.274;26.924;2023-02-21T01:07:46;98742.28;;;7.17;57.30
37856;BME280;23694;43.274;26.924;2023-02-21T01:10:31;98736.53;;;7.26;56.90
37856;BME280;23694;43.274;26.924;2023-02-21T01:13:15;98748.72;;;7.25;56.73
37856;BME280;23694;43.274;26.924;2023-02-21T01:16:00;98735.16;;;7.35;56.01
37856;BME280;23694;43.274;26.924;2023-02-21T01:18:44;98731.19;;;7.43;55.86
37856;BME280;23694;43.274;26.924;2023-02-21T01:21:28;98725.97;;;7.43;55.86
37856;BME280;23694;43.274;26.924;2023-02-21T01:24:14;98726.53;;;7.48;55.20
37856;BME280;23694;43.274;26.924;2023-02-21T01:26:59;98730.53;;;7.54;55.05
37856;BME280;23694;43.274;26.924;2023-02-21T01:29:44;98714.72;;;7.57;55.29
37856;BME280;23694;43.274;26.924;2023-02-21T01:32:28;98710.25;;;7.59;54.68
37856;BME280;23694;43.274;26.924;2023-02-21T01:35:13;98709.50;;;7.57;54.74
37856;BME280;23694;43.274;26.924;2023-02-21T01:37:57;98707.75;;;7.57;54.65
37856;BME280;23694;43.274;26.924;2023-02-21T01:40:42;98701.13;;;7.66;54.37
37856;BME280;23694;43.274;26.924;2023-02-21T01:43:27;98698.91;;;7.74;53.44
37856;BME280;23694;43.274;26.924;2023-02-21T01:46:15;98689.97;;;7.78;53.30
37856;BME280;23694;43.274;26.924;2023-02-21T01:49:08;98712.06;;;7.87;52.89
37856;BME280;23694;43.274;26.924;2023-02-21T01:51:53;98714.28;;;7.93;52.54
37856;BME280;23694;43.274;26.924;2023-02-21T01:54:47;98707.84;;;7.99;52.53
37856;BME280;23694;43.274;26.924;2023-02-21T01:57:33;98704.78;;;7.92;52.27
37856;BME280;23694;43.274;26.924;2023-02-21T02:00:19;98715.41;;;8.03;51.48
37856;BME280;23694;43.274;26.924;2023-02-21T02:03:06;98705.81;;;8.04;51.75
37856;BME280;23694;43.274;26.924;2023-02-21T02:05:55;98697.03;;;8.05;51.29
37856;BME280;23694;43.274;26.924;2023-02-21T02:08:40;98689.69;;;7.97;51.71
37856;BME280;23694;43.274;26.924;2023-02-21T02:15:18;98694.63;;;8.02;51.34
37856;BME280;23694;43.274;26.924;2023-02-21T02:26:39;98684.84;;;8.05;51.01
37856;BME280;23694;43.274;26.924;2023-02-21T02:37:51;98710.16;;;8.17;49.95
37856;BME280;23694;43.274;26.924;2023-02-21T02:45:38;98718.53;;;8.37;49.41
37856;BME280;23694;43.274;26.924;2023-02-21T02:48:20;98711.81;;;8.33;49.79
37856;BME280;23694;43.274;26.924;2023-02-21T02:50:49;98722.94;;;8.36;49.47
37856;BME280;23694;43.274;26.924;2023-02-21T02:53:20;98722.09;;;8.36;49.64
37856;BME280;23694;43.274;26.924;2023-02-21T02:56:01;98728.44;;;8.46;49.00
37856;BME280;23694;43.274;26.924;2023-02-21T02:58:30;98732.88;;;8.44;49.15
37856;BME280;23694;43.274;26.924;2023-02-21T03:06:51;98738.78;;;8.47;48.86
37856;BME280;23694;43.274;26.924;2023-02-21T03:11:52;98735.34;;;8.47;49.68
37856;BME280;23694;43.274;26.924;2023-02-21T03:14:21;98734.19;;;8.51;49.15
37856;BME280;23694;43.274;26.924;2023-02-21T03:16:53;98730.38;;;8.56;48.79
37856;BME280;23694;43.274;26.924;2023-02-21T03:19:25;98735.34;;;8.47;49.42
37856;BME280;23694;43.274;26.924;2023-02-21T03:22:02;98733.38;;;8.50;49.14
37856;BME280;23694;43.274;26.924;2023-02-21T03:24:30;98741.09;;;8.52;49.01
37856;BME280;23694;43.274;26.924;2023-02-21T03:27:02;98723.56;;;8.54;48.72
37856;BME280;23694;43.274;26.924;2023-02-21T03:29:30;98732.97;;;8.56;48.97
37856;BME280;23694;43.274;26.924;2023-02-21T03:32:02;98744.66;;;8.51;49.25
37856;BME280;23694;43.274;26.924;2023-02-21T03:34:39;98733.72;;;8.44;48.89
37856;BME280;23694;43.274;26.924;2023-02-21T03:37:07;98741.38;;;8.47;49.77
37856;BME280;23694;43.274;26.924;2023-02-21T03:39:33;98729.19;;;8.48;49.56
37856;BME280;23694;43.274;26.924;2023-02-21T03:41:59;98735.50;;;8.44;49.48
37856;BME280;23694;43.274;26.924;2023-02-21T03:44:25;98729.91;;;8.50;48.84
37856;BME280;23694;43.274;26.924;2023-02-21T03:46:51;98724.91;;;8.47;49.32
37856;BME280;23694;43.274;26.924;2023-02-21T03:49:17;98729.34;;;8.45;48.91
37856;BME280;23694;43.274;26.924;2023-02-21T03:51:43;98723.38;;;8.57;48.96
37856;BME280;23694;43.274;26.924;2023-02-21T03:54:09;98721.41;;;8.61;48.24
37856;BME280;23694;43.274;26.924;2023-02-21T03:56:35;98718.69;;;8.62;48.80
37856;BME280;23694;43.274;26.924;2023-02-21T03:59:01;98705.78;;;8.46;48.99
37856;BME280;23694;43.274;26.924;2023-02-21T04:01:28;98722.84;;;8.38;49.16
37856;BME280;23694;43.274;26.924;2023-02-21T04:03:54;98713.22;;;8.38;49.05
37856;BME280;23694;43.274;26.924;2023-02-21T04:06:20;98710.16;;;8.46;49.04
37856;BME280;23694;43.274;26.924;2023-02-21T04:08:46;98710.22;;;8.30;49.70
37856;BME280;23694;43.274;26.924;2023-02-21T04:11:12;98712.38;;;8.38;49.85
37856;BME280;23694;43.274;26.924;2023-02-21T04:13:41;98701.13;;;8.37;49.93
37856;BME280;23694;43.274;26.924;2023-02-21T04:16:07;98709.59;;;8.26;50.33
37856;BME280;23694;43.274;26.924;2023-02-21T04:18:33;98699.63;;;8.19;50.16
37856;BME280;23694;43.274;26.924;2023-02-21T04:20:59;98693.88;;;8.14;50.73
37856;BME280;23694;43.274;26.924;2023-02-21T04:23:25;98691.25;;;8.14;50.67
37856;BME280;23694;43.274;26.924;2023-02-21T04:25:51;98706.34;;;8.23;50.35
37856;BME280;23694;43.274;26.924;2023-02-21T04:28:17;98697.38;;;8.27;50.36
37856;BME280;23694;43.274;26.924;2023-02-21T04:30:43;98684.88;;;8.32;49.63
37856;BME280;23694;43.274;26.924;2023-02-21T04:33:09;98676.78;;;8.37;49.94
37856;BME280;23694;43.274;26.924;2023-02-21T04:35:35;98683.88;;;8.35;49.61
37856;BME280;23694;43.274;26.924;2023-02-21T04:38:01;98661.41;;;8.32;50.17
37856;BME280;23694;43.274;26.924;2023-02-21T04:40:27;98669.81;;;8.37;49.72
37856;BME280;23694;43.274;26.924;2023-02-21T04:42:53;98671.66;;;8.35;50.20
37856;BME280;23694;43.274;26.924;2023-02-21T04:45:19;98673.88;;;8.41;50.22
37856;BME280;23694;43.274;26.924;2023-02-21T04:47:45;98663.66;;;8.38;49.85
37856;BME280;23694;43.274;26.924;2023-02-21T04:50:11;98658.31;;;8.40;50.27
37856;BME280;23694;43.274;26.924;2023-02-21T04:52:38;98654.59;;;8.44;50.00
37856;BME280;23694;43.274;26.924;2023-02-21T04:55:07;98652.81;;;8.44;49.66
37856;BME280;23694;43.274;26.924;2023-02-21T04:57:33;98644.44;;;8.39;49.97
37856;BME280;23694;43.274;26.924;2023-02-21T04:59:59;98641.53;;;8.44;50.15
37856;BME280;23694;43.274;26.924;2023-02-21T05:02:26;98646.69;;;8.45;49.97
37856;BME280;23694;43.274;26.924;2023-02-21T05:04:53;98649.00;;;8.50;50.18
37856;BME280;23694;43.274;26.924;2023-02-21T05:07:19;98639.09;;;8.55;49.20
37856;BME280;23694;43.274;26.924;2023-02-21T05:09:45;98644.22;;;8.56;49.49
37856;BME280;23694;43.274;26.924;2023-02-21T05:12:11;98638.19;;;8.69;48.96
37856;BME280;23694;43.274;26.924;2023-02-21T05:14:37;98641.22;;;8.63;48.97
37856;BME280;23694;43.274;26.924;2023-02-21T05:17:04;98637.88;;;8.61;49.40
37856;BME280;23694;43.274;26.924;2023-02-21T05:19:30;98647.69;;;8.70;48.59
37856;BME280;23694;43.274;26.924;2023-02-21T05:21:58;98651.59;;;8.77;48.81
37856;BME280;23694;43.274;26.924;2023-02-21T05:24:27;98646.63;;;8.99;48.54
37856;BME280;23694;43.274;26.924;2023-02-21T05:26:53;98645.06;;;9.98;45.73
37856;BME280;23694;43.274;26.924;2023-02-21T05:29:20;98653.31;;;10.89;43.36
37856;BME280;23694;43.274;26.924;2023-02-21T05:31:46;98651.16;;;11.18;42.53
37856;BME280;23694;43.274;26.924;2023-02-21T05:34:14;98635.72;;;11.60;41.90
37856;BME280;23694;43.274;26.924;2023-02-21T05:36:40;98644.06;;;11.65;41.10
37856;BME280;23694;43.274;26.924;2023-02-21T05:39:07;98630.56;;;11.25;42.07
37856;BME280;23694;43.274;26.924;2023-02-21T05:41:33;98644.53;;;11.01;42.27
37856;BME280;23694;43.274;26.924;2023-02-21T05:44:01;98641.31;;;10.98;42.81
37856;BME280;23694;43.274;26.924;2023-02-21T05:46:30;98638.47;;;10.42;43.32
37856;BME280;23694;43.274;26.924;2023-02-21T05:48:59;98652.00;;;10.84;42.90
37856;BME280;23694;43.274;26.924;2023-02-21T05:51:26;98657.94;;;11.09;42.27
37856;BME280;23694;43.274;26.924;2023-02-21T05:53:53;98655.50;;;11.53;41.55
37856;BME280;23694;43.274;26.924;2023-02-21T05:56:20;98658.56;;;11.93;40.36
37856;BME280;23694;43.274;26.924;2023-02-21T05:58:46;98657.91;;;12.45;39.97
37856;BME280;23694;43.274;26.924;2023-02-21T06:01:12;98649.22;;;12.97;38.68
37856;BME280;23694;43.274;26.924;2023-02-21T06:03:38;98650.19;;;12.96;38.51
37856;BME280;23694;43.274;26.924;2023-02-21T06:06:05;98649.78;;;12.80;38.57
37856;BME280;23694;43.274;26.924;2023-02-21T06:08:31;98643.94;;;12.77;38.40
37856;BME280;23694;43.274;26.924;2023-02-21T06:10:57;98651.38;;;12.72;38.83
37856;BME280;23694;43.274;26.924;2023-02-21T06:13:23;98644.81;;;12.12;40.16
37856;BME280;23694;43.274;26.924;2023-02-21T06:15:49;98651.16;;;12.09;39.99
37856;BME280;23694;43.274;26.924;2023-02-21T06:18:15;98657.84;;;11.80;40.89
37856;BME280;23694;43.274;26.924;2023-02-21T06:20:43;98660.41;;;11.57;41.39
37856;BME280;23694;43.274;26.924;2023-02-21T06:23:09;98657.50;;;11.27;42.34
37856;BME280;23694;43.274;26.924;2023-02-21T06:25:35;98648.81;;;11.26;42.21
37856;BME280;23694;43.274;26.924;2023-02-21T06:28:01;98642.22;;;11.09;42.73
37856;BME280;23694;43.274;26.924;2023-02-21T06:30:27;98642.72;;;10.91;43.61
37856;BME280;23694;43.274;26.924;2023-02-21T06:32:53;98621.56;;;10.70;44.11
37856;BME280;23694;43.274;26.924;2023-02-21T06:35:19;98616.16;;;10.84;43.68
37856;BME280;23694;43.274;26.924;2023-02-21T06:37:45;98623.25;;;10.71;44.29
37856;BME280;23694;43.274;26.924;2023-02-21T06:40:11;98624.84;;;10.85;43.87
37856;BME280;23694;43.274;26.924;2023-02-21T06:42:37;98604.81;;;11.19;43.09
37856;BME280;23694;43.274;26.924;2023-02-21T06:45:04;98613.53;;;11.41;42.75
37856;BME280;23694;43.274;26.924;2023-02-21T06:47:30;98609.63;;;11.58;42.09
37856;BME280;23694;43.274;26.924;2023-02-21T06:49:56;98618.63;;;11.78;41.45
37856;BME280;23694;43.274;26.924;2023-02-21T06:52:22;98609.38;;;11.61;41.84
37856;BME280;23694;43.274;26.924;2023-02-21T06:54:49;98608.81;;;11.91;41.37
37856;BME280;23694;43.274;26.924;2023-02-21T06:57:15;98618.59;;;12.00;40.87
37856;BME280;23694;43.274;26.924;2023-02-21T06:59:41;98618.09;;;12.06;40.77
37856;BME280;23694;43.274;26.924;2023-02-21T07:02:15;98621.47;;;11.86;41.01
37856;BME280;23694;43.274;26.924;2023-02-21T07:04:44;98623.03;;;11.78;41.18
37856;BME280;23694;43.274;26.924;2023-02-21T07:07:10;98617.97;;;11.63;41.39
37856;BME280;23694;43.274;26.924;2023-02-21T07:09:36;98609.84;;;11.55;41.55
37856;BME280;23694;43.274;26.924;2023-02-21T07:12:02;98614.50;;;11.63;41.56
37856;BME280;23694;43.274;26.924;2023-02-21T07:14:29;98604.47;;;11.68;41.39
37856;BME280;23694;43.274;26.924;2023-02-21T07:16:55;98598.31;;;11.91;41.00
37856;BME280;23694;43.274;26.924;2023-02-21T07:19:21;98589.88;;;12.31;40.18
37856;BME280;23694;43.274;26.924;2023-02-21T07:21:47;98601.41;;;12.51;39.97
37856;BME280;23694;43.274;26.924;2023-02-21T07:24:13;98597.25;;;12.48;40.10
37856;BME280;23694;43.274;26.924;2023-02-21T07:26:39;98579.22;;;12.44;39.56
37856;BME280;23694;43.274;26.924;2023-02-21T07:29:05;98578.56;;;12.62;39.14
37856;BME280;23694;43.274;26.924;2023-02-21T07:31:32;98585.63;;;12.83;38.74
37856;BME280;23694;43.274;26.924;2023-02-21T07:33:58;98579.41;;;12.84;38.67
37856;BME280;23694;43.274;26.924;2023-02-21T07:36:25;98573.81;;;12.98;38.78
37856;BME280;23694;43.274;26.924;2023-02-21T07:38:51;98574.69;;;13.19;37.76
37856;BME280;23694;43.274;26.924;2023-02-21T07:41:19;98575.06;;;13.15;38.47
37856;BME280;23694;43.274;26.924;2023-02-21T07:43:46;98582.72;;;13.48;37.83
37856;BME280;23694;43.274;26.924;2023-02-21T07:46:14;98575.31;;;13.63;37.59
37856;BME280;23694;43.274;26.924;2023-02-21T07:48:40;98581.06;;;13.78;37.43
37856;BME280;23694;43.274;26.924;2023-02-21T07:51:07;98573.44;;;13.75;37.25
37856;BME280;23694;43.274;26.924;2023-02-21T07:53:33;98576.09;;;13.54;37.50
37856;BME280;23694;43.274;26.924;2023-02-21T07:56:01;98562.91;;;13.75;37.08
37856;BME280;23694;43.274;26.924;2023-02-21T07:58:27;98559.50;;;13.93;36.80
37856;BME280;23694;43.274;26.924;2023-02-21T08:00:53;98562.44;;;14.10;36.80
37856;BME280;23694;43.274;26.924;2023-02-21T08:03:20;98560.78;;;14.18;36.44
37856;BME280;23694;43.274;26.924;2023-02-21T08:05:47;98554.91;;;13.95;36.77
37856;BME280;23694;43.274;26.924;2023-02-21T08:08:14;98560.19;;;13.95;36.86
37856;BME280;23694;43.274;26.924;2023-02-21T08:10:41;98542.72;;;13.94;36.77
37856;BME280;23694;43.274;26.924;2023-02-21T08:13:07;98562.69;;;13.97;36.60
37856;BME280;23694;43.274;26.924;2023-02-21T08:15:33;98550.22;;;13.99;36.78
37856;BME280;23694;43.274;26.924;2023-02-21T08:18:00;98541.47;;;13.89;36.91
37856;BME280;23694;43.274;26.924;2023-02-21T08:20:26;98555.06;;;13.94;36.97
37856;BME280;23694;43.274;26.924;2023-02-21T08:22:52;98545.22;;;13.96;36.75
37856;BME280;23694;43.274;26.924;2023-02-21T08:25:18;98552.72;;;14.10;36.61
37856;BME280;23694;43.274;26.924;2023-02-21T08:27:44;98534.72;;;14.15;36.55
37856;BME280;23694;43.274;26.924;2023-02-21T08:30:14;98530.00;;;14.19;36.48
37856;BME280;23694;43.274;26.924;2023-02-21T08:32:41;98500.88;;;14.11;36.38
37856;BME280;23694;43.274;26.924;2023-02-21T08:35:13;98519.47;;;14.19;36.39
37856;BME280;23694;43.274;26.924;2023-02-21T08:37:39;98528.50;;;14.36;36.37
37856;BME280;23694;43.274;26.924;2023-02-21T08:40:10;98524.63;;;14.40;36.10
37856;BME280;23694;43.274;26.924;2023-02-21T08:42:37;98521.44;;;14.36;36.24
37856;BME280;23694;43.274;26.924;2023-02-21T08:45:03;98530.59;;;14.32;36.17
37856;BME280;23694;43.274;26.924;2023-02-21T08:47:32;98530.59;;;14.42;35.99
37856;BME280;23694;43.274;26.924;2023-02-21T08:49:59;98523.41;;;14.44;35.92
37856;BME280;23694;43.274;26.924;2023-02-21T08:52:26;98537.41;;;14.54;35.79
37856;BME280;23694;43.274;26.924;2023-02-21T08:54:52;98520.34;;;14.58;35.66
37856;BME280;23694;43.274;26.924;2023-02-21T08:57:18;98518.28;;;14.52;35.56
37856;BME280;23694;43.274;26.924;2023-02-21T08:59:44;98520.34;;;14.58;35.45
37856;BME280;23694;43.274;26.924;2023-02-21T09:02:18;98525.91;;;14.55;35.34
37856;BME280;23694;43.274;26.924;2023-02-21T09:04:45;98533.94;;;14.63;34.95
37856;BME280;23694;43.274;26.924;2023-02-21T09:07:12;98531.03;;;14.66;35.09
37856;BME280;23694;43.274;26.924;2023-02-21T09:09:38;98520.50;;;14.56;35.14
37856;BME280;23694;43.274;26.924;2023-02-21T09:12:05;98524.94;;;14.46;35.54
37856;BME280;23694;43.274;26.924;2023-02-21T09:14:36;98538.09;;;14.66;35.31
37856;BME280;23694;43.274;26.924;2023-02-21T09:17:03;98519.38;;;14.69;34.60
37856;BME280;23694;43.274;26.924;2023-02-21T09:19:30;98517.28;;;14.72;34.39
37856;BME280;23694;43.274;26.924;2023-02-21T09:21:57;98535.31;;;14.77;34.20
37856;BME280;23694;43.274;26.924;2023-02-21T09:24:25;98525.31;;;14.71;34.46
37856;BME280;23694;43.274;26.924;2023-02-21T09:26:52;98532.50;;;14.88;34.04
37856;BME280;23694;43.274;26.924;2023-02-21T09:29:22;98529.59;;;14.81;33.99
37856;BME280;23694;43.274;26.924;2023-02-21T09:31:49;98542.63;;;14.93;33.69
37856;BME280;23694;43.274;26.924;2023-02-21T09:34:15;98527.94;;;15.00;33.94
37856;BME280;23694;43.274;26.924;2023-02-21T09:36:42;98528.34;;;15.05;33.78
37856;BME280;23694;43.274;26.924;2023-02-21T09:39:08;98531.06;;;15.22;33.39
37856;BME280;23694;43.274;26.924;2023-02-21T09:41:35;98526.34;;;15.16;33.27
37856;BME280;23694;43.274;26.924;2023-02-21T09:44:04;98515.59;;;15.37;32.76
37856;BME280;23694;43.274;26.924;2023-02-21T09:46:40;98509.00;;;15.51;32.70
37856;BME280;23694;43.274;26.924;2023-02-21T09:49:24;98508.28;;;15.59;32.70
37856;BME280;23694;43.274;26.924;2023-02-21T09:51:52;98511.59;;;15.70;32.50
37856;BME280;23694;43.274;26.924;2023-02-21T09:54:44;98498.19;;;15.81;31.63
37856;BME280;23694;43.274;26.924;2023-02-21T09:57:14;98504.31;;;16.00;31.29
37856;BME280;23694;43.274;26.924;2023-02-21T09:59:41;98511.09;;;16.20;30.86
37856;BME280;23694;43.274;26.924;2023-02-21T10:10:46;98483.56;;;16.23;30.30
37856;BME280;23694;43.274;26.924;2023-02-21T10:16:07;98479.78;;;16.07;30.74
37856;BME280;23694;43.274;26.924;2023-02-21T10:18:42;98489.66;;;16.23;30.33
37856;BME280;23694;43.274;26.924;2023-02-21T10:21:15;98490.59;;;16.32;30.22
37856;BME280;23694;43.274;26.924;2023-02-21T10:23:47;98484.00;;;16.18;30.59
37856;BME280;23694;43.274;26.924;2023-02-21T10:26:20;98486.34;;;16.21;30.45
37856;BME280;23694;43.274;26.924;2023-02-21T10:28:48;98477.38;;;16.32;30.12
37856;BME280;23694;43.274;26.924;2023-02-21T10:31:24;98482.97;;;16.29;30.27
37856;BME280;23694;43.274;26.924;2023-02-21T10:33:55;98459.09;;;16.21;30.36
37856;BME280;23694;43.274;26.924;2023-02-21T10:36:22;98469.28;;;16.15;30.07
37856;BME280;23694;43.274;26.924;2023-02-21T10:39:12;98460.41;;;16.34;29.81
37856;BME280;23694;43.274;26.924;2023-02-21T10:41:40;98443.16;;;16.48;29.54
37856;BME280;23694;43.274;26.924;2023-02-21T10:44:17;98458.81;;;16.41;29.07
37856;BME280;23694;43.274;26.924;2023-02-21T10:49:24;98448.13;;;16.51;29.23
37856;BME280;23694;43.274;26.924;2023-02-21T10:54:33;98442.00;;;16.68;28.81
37856;BME280;23694;43.274;26.924;2023-02-21T10:57:01;98453.41;;;16.69;28.92
37856;BME280;23694;43.274;26.924;2023-02-21T10:59:31;98446.47;;;16.68;28.80
37856;BME280;23694;43.274;26.924;2023-02-21T11:01:58;98445.22;;;16.80;28.82
37856;BME280;23694;43.274;26.924;2023-02-21T11:04:31;98456.75;;;16.97;28.82
37856;BME280;23694;43.274;26.924;2023-02-21T11:07:09;98450.63;;;16.96;28.15
37856;BME280;23694;43.274;26.924;2023-02-21T11:09:41;98438.94;;;17.07;28.42
37856;BME280;23694;43.274;26.924;2023-02-21T11:12:24;98404.56;;;17.15;27.86
37856;BME280;23694;43.274;26.924;2023-02-21T11:17:28;98425.25;;;17.20;27.73
37856;BME280;23694;43.274;26.924;2023-02-21T11:22:43;98420.50;;;17.31;27.03
37856;BME280;23694;43.274;26.924;2023-02-21T11:25:29;98407.47;;;17.46;26.59
37856;BME280;23694;43.274;26.924;2023-02-21T11:28:04;98418.03;;;17.72;26.39
37856;BME280;23694;43.274;26.924;2023-02-21T11:30:35;98390.91;;;17.86;26.16
37856;BME280;23694;43.274;26.924;2023-02-21T11:33:03;98388.59;;;17.91;26.31
37856;BME280;23694;43.274;26.924;2023-02-21T11:35:36;98392.88;;;17.92;26.12
37856;BME280;23694;43.274;26.924;2023-02-21T11:38:08;98393.56;;;18.11;26.20
37856;BME280;23694;43.274;26.924;2023-02-21T11:40:53;98386.44;;;18.11;25.99
37856;BME280;23694;43.274;26.924;2023-02-21T11:43:23;98380.47;;;18.17;25.67
37856;BME280;23694;43.274;26.924;2023-02-21T11:51:47;98354.25;;;18.63;25.38
37856;BME280;23694;43.274;26.924;2023-02-21T11:54:11;98354.06;;;18.73;25.29
37856;BME280;23694;43.274;26.924;2023-02-21T11:56:45;98350.94;;;18.69;25.45
37856;BME280;23694;43.274;26.924;2023-02-21T12:16:11;98355.09;;;18.63;25.89
37856;BME280;23694;43.274;26.924;2023-02-21T12:24:24;98366.56;;;18.23;26.27
37856;BME280;23694;43.274;26.924;2023-02-21T12:27:16;98355.28;;;18.13;26.64
37856;BME280;23694;43.274;26.924;2023-02-21T12:33:15;98353.97;;;17.85;26.84
37856;BME280;23694;43.274;26.924;2023-02-21T12:46:38;98338.81;;;17.44;27.39
37856;BME280;23694;43.274;26.924;2023-02-21T12:49:13;98340.19;;;17.65;27.38
37856;BME280;23694;43.274;26.924;2023-02-21T12:51:50;98332.94;;;17.83;27.21
37856;BME280;23694;43.274;26.924;2023-02-21T12:54:35;98307.94;;;17.78;27.24
37856;BME280;23694;43.274;26.924;2023-02-21T12:57:12;98319.84;;;17.65;27.41
37856;BME280;23694;43.274;26.924;2023-02-21T12:59:54;98322.66;;;17.64;27.31
37856;BME280;23694;43.274;26.924;2023-02-21T13:05:18;98306.72;;;17.39;27.03
37856;BME280;23694;43.274;26.924;2023-02-21T13:07:55;98327.50;;;17.18;27.05
37856;BME280;23694;43.274;26.924;2023-02-21T13:13:12;98337.25;;;17.18;27.19
37856;BME280;23694;43.274;26.924;2023-02-21T13:15:42;98323.66;;;17.04;27.28
37856;BME280;23694;43.274;26.924;2023-02-21T13:18:34;98327.16;;;17.05;27.16
37856;BME280;23694;43.274;26.924;2023-02-21T13:23:59;98309.44;;;17.05;27.39
37856;BME280;23694;43.274;26.924;2023-02-21T13:29:30;98313.66;;;17.40;27.06
37856;BME280;23694;43.274;26.924;2023-02-21T13:32:14;98316.97;;;17.42;27.14
37856;BME280;23694;43.274;26.924;2023-02-21T13:34:59;98296.16;;;17.56;27.10
37856;BME280;23694;43.274;26.924;2023-02-21T13:37:29;98322.94;;;17.53;27.09
37856;BME280;23694;43.274;26.924;2023-02-21T13:40:06;98294.31;;;17.48;27.16
37856;BME280;23694;43.274;26.924;2023-02-21T13:42:41;98317.81;;;17.51;27.10
37856;BME280;23694;43.274;26.924;2023-02-21T13:45:25;98330.72;;;17.54;27.55
37856;BME280;23694;43.274;26.924;2023-02-21T13:55:38;98296.69;;;17.67;27.51
37856;BME280;23694;43.274;26.924;2023-02-21T14:10:47;98277.47;;;17.65;28.07
37856;BME280;23694;43.274;26.924;2023-02-21T14:21:14;98305.88;;;17.47;28.55
37856;BME280;23694;43.274;26.924;2023-02-21T14:26:50;98310.34;;;17.30;29.05
37856;BME280;23694;43.274;26.924;2023-02-21T14:37:35;98309.97;;;17.17;29.34
37856;BME280;23694;43.274;26.924;2023-02-21T14:45:50;98314.56;;;16.99;29.50
37856;BME280;23694;43.274;26.924;2023-02-21T14:59:31;98317.31;;;16.89;29.45
37856;BME280;23694;43.274;26.924;2023-02-21T15:05:12;98328.44;;;16.67;29.79
37856;BME280;23694;43.274;26.924;2023-02-21T15:10:21;98332.78;;;16.76;29.49
37856;BME280;23694;43.274;26.924;2023-02-21T15:12:54;98334.19;;;16.62;29.43
37856;BME280;23694;43.274;26.924;2023-02-21T15:15:38;98345.91;;;16.60;29.74
37856;BME280;23694;43.274;26.924;2023-02-21T15:18:09;98343.88;;;16.54;29.79
37856;BME280;23694;43.274;26.924;2023-02-21T15:20:38;98341.75;;;16.57;29.84
37856;BME280;23694;43.274;26.924;2023-02-21T15:23:16;98343.69;;;16.47;29.91
37856;BME280;23694;43.274;26.924;2023-02-21T15:25:53;98343.47;;;16.40;30.42
37856;BME280;23694;43.274;26.924;2023-02-21T15:28:28;98342.09;;;16.28;30.44
37856;BME280;23694;43.274;26.924;2023-02-21T15:30:59;98362.63;;;16.16;30.69
37856;BME280;23694;43.274;26.924;2023-02-21T15:33:27;98370.50;;;16.08;31.12
37856;BME280;23694;43.274;26.924;2023-02-21T15:35:56;98358.72;;;16.03;31.01
37856;BME280;23694;43.274;26.924;2023-02-21T15:38:26;98358.94;;;16.09;30.91
37856;BME280;23694;43.274;26.924;2023-02-21T15:40:57;98358.63;;;16.12;30.70
37856;BME280;23694;43.274;26.924;2023-02-21T15:43:36;98364.72;;;15.87;31.11
37856;BME280;23694;43.274;26.924;2023-02-21T15:46:07;98368.63;;;15.83;31.57
37856;BME280;23694;43.274;26.924;2023-02-21T15:48:36;98360.34;;;15.78;31.55
37856;BME280;23694;43.274;26.924;2023-02-21T15:51:05;98360.03;;;15.63;31.71
37856;BME280;23694;43.274;26.924;2023-02-21T15:53:33;98358.38;;;15.62;31.54
37856;BME280;23694;43.274;26.924;2023-02-21T15:56:21;98347.25;;;15.59;31.89
37856;BME280;23694;43.274;26.924;2023-02-21T15:59:10;98365.16;;;15.37;32.32
37856;BME280;23694;43.274;26.924;2023-02-21T16:01:38;98358.31;;;15.44;32.12
37856;BME280;23694;43.274;26.924;2023-02-21T16:04:15;98368.19;;;15.42;32.47
37856;BME280;23694;43.274;26.924;2023-02-21T16:06:54;98367.28;;;15.34;32.44
37856;BME280;23694;43.274;26.924;2023-02-21T16:09:26;98368.41;;;15.31;32.01
37856;BME280;23694;43.274;26.924;2023-02-21T16:14:47;98382.47;;;15.22;31.87